Time;durP1;ratioP1;P1;durP2;ratioP2;P2;SDS_P1;SDS_P2;PMS_P1;PMS_P2;Temp;Humidity;BMP_temperature;BMP_pressure;BME280_temperature;BME280_humidity;BME280_pressure;Samples;Min_cycle;Max_cycle;Signal;HPM_P1;HPM_P2
2021/06/08 00:01:41;;;;;;;;;;;16.80;99.90;;;;;;5094404;28;19912;-71
2021/06/08 00:04:06;;;;;;;;;;;16.80;99.90;;;;;;5094415;28;20381;-70
2021/06/08 00:06:32;;;;;;;;;;;16.80;99.90;;;;;;5093914;28;19912;-70
2021/06/08 00:08:57;;;;;;;;;;;16.90;99.90;;;;;;5094300;28;19908;-71
2021/06/08 00:11:23;;;;;;;;;;;17.00;99.90;;;;;;5094242;28;19908;-69
2021/06/08 00:13:48;;;;;;;;;;;17.00;99.90;;;;;;5094105;28;19931;-70
2021/06/08 00:16:14;;;;;;;;;;;17.00;99.90;;;;;;5093457;28;19943;-70
2021/06/08 00:18:40;;;;;;;;;;;16.80;99.90;;;;;;5094039;28;19908;-70
2021/06/08 00:21:06;;;;;;;;;;;16.80;99.90;;;;;;5094607;28;19912;-70
2021/06/08 00:23:31;;;;;;;;;;;16.70;99.90;;;;;;5094100;28;19935;-70
2021/06/08 00:25:57;;;;;;;;;;;16.70;99.90;;;;;;5093345;28;19909;-70
2021/06/08 00:28:22;;;;;;;;;;;16.50;99.90;;;;;;5101128;28;19914;-72
2021/06/08 00:30:48;;;;;;;;;;;16.50;99.90;;;;;;5114218;28;19907;-73
2021/06/08 00:33:13;;;;;;;;;;;16.40;99.90;;;;;;5114597;28;20276;-70
2021/06/08 00:35:39;;;;;;;;;;;16.30;99.90;;;;;;5113763;28;19914;-71
2021/06/08 00:38:04;;;;;;;;;;;16.20;99.90;;;;;;5114133;28;19964;-70
2021/06/08 00:40:30;;;;;;;;;;;16.20;99.90;;;;;;5113798;28;19999;-71
2021/06/08 00:42:56;;;;;;;;;;;16.30;99.90;;;;;;5113979;28;19914;-69
2021/06/08 00:45:22;;;;;;;;;;;16.30;99.90;;;;;;5113356;28;19915;-69
2021/06/08 00:47:47;;;;;;;;;;;16.30;99.90;;;;;;5113537;28;19908;-70
2021/06/08 00:50:13;;;;;;;;;;;16.30;99.90;;;;;;5114121;28;20399;-70
2021/06/08 00:52:39;;;;;;;;;;;16.30;99.90;;;;;;5113687;28;19919;-71
2021/06/08 00:55:04;;;;;;;;;;;16.30;99.90;;;;;;5113714;28;19908;-71
2021/06/08 00:57:30;;;;;;;;;;;16.30;99.90;;;;;;5108882;28;20028;-70
2021/06/08 00:59:55;;;;;;;;;;;16.30;99.90;;;;;;5101612;28;19912;-70
2021/06/08 01:02:21;;;;;;;;;;;16.30;99.90;;;;;;5093338;28;19946;-70
2021/06/08 01:04:47;;;;;;;;;;;16.30;99.90;;;;;;5093083;28;20017;-71
2021/06/08 01:07:12;;;;;;;;;;;16.30;99.90;;;;;;5092614;28;19908;-69
2021/06/08 01:09:38;;;;;;;;;;;16.30;99.90;;;;;;5093563;28;19908;-70
2021/06/08 01:12:03;;;;;;;;;;;16.20;99.90;;;;;;5093088;28;19961;-71
2021/06/08 01:14:29;;;;;;;;;;;16.20;99.90;;;;;;5092893;28;20323;-71
2021/06/08 01:16:54;;;;;;;;;;;16.10;99.90;;;;;;5092794;28;19912;-69
2021/06/08 01:19:20;;;;;;;;;;;16.10;99.90;;;;;;5092980;28;20422;-70
2021/06/08 01:21:45;;;;;;;;;;;16.00;99.90;;;;;;5092864;28;19912;-70
2021/06/08 01:24:11;;;;;;;;;;;16.10;99.90;;;;;;5092836;28;20349;-72
2021/06/08 01:26:38;;;;;;;;;;;16.10;99.90;;;;;;5092236;28;19912;-72
2021/06/08 01:29:04;;;;;;;;;;;16.10;99.90;;;;;;5099289;28;19998;-70
2021/06/08 01:31:30;;;;;;;;;;;16.10;99.90;;;;;;5094085;28;19909;-71
2021/06/08 01:33:56;;;;;;;;;;;16.10;99.90;;;;;;5088393;28;19912;-70
2021/06/08 01:36:22;;;;;;;;;;;16.00;99.90;;;;;;5101651;28;19908;-70
2021/06/08 01:38:50;;;;;;;;;;;16.10;99.90;;;;;;5112907;28;19946;-70
2021/06/08 01:41:17;;;;;;;;;;;16.10;99.90;;;;;;5112870;28;19966;-72
2021/06/08 01:43:44;;;;;;;;;;;16.10;99.90;;;;;;5112616;28;19908;-70
2021/06/08 01:46:09;;;;;;;;;;;16.10;99.90;;;;;;5112242;28;19915;-69
2021/06/08 01:48:35;;;;;;;;;;;16.10;99.90;;;;;;5112397;28;19908;-70
2021/06/08 01:51:07;;;;;;;;;;;16.10;99.90;;;;;;5112749;28;19972;-70
2021/06/08 01:53:51;;;;;;;;;;;16.00;99.90;;;;;;5113108;28;19908;-70
2021/06/08 01:56:20;;;;;;;;;;;16.00;99.90;;;;;;5111204;28;19912;-70
2021/06/08 01:59:05;;;;;;;;;;;16.00;99.90;;;;;;5112401;28;19908;-70
2021/06/08 02:01:37;;;;;;;;;;;16.00;99.90;;;;;;5101638;28;19999;-69
2021/06/08 02:04:10;;;;;;;;;;;16.00;99.90;;;;;;5097363;28;19908;-70
2021/06/08 02:06:46;;;;;;;;;;;16.00;99.90;;;;;;5091625;28;20321;-69
2021/06/08 02:09:18;;;;;;;;;;;16.10;99.90;;;;;;5091945;28;19908;-69
2021/06/08 02:11:48;;;;;;;;;;;16.10;99.90;;;;;;5092008;28;20393;-71
2021/06/08 02:14:34;;;;;;;;;;;16.10;99.90;;;;;;5091496;28;19913;-70
2021/06/08 02:17:20;;;;;;;;;;;16.10;99.90;;;;;;5091105;28;19919;-70
2021/06/08 02:19:47;;;;;;;;;;;16.10;99.90;;;;;;5091590;28;19915;-70
2021/06/08 02:22:14;;;;;;;;;;;16.20;99.90;;;;;;5091801;28;19908;-70
2021/06/08 02:24:42;;;;;;;;;;;16.20;99.90;;;;;;5091579;28;19962;-69
2021/06/08 02:27:09;;;;;;;;;;;16.20;99.90;;;;;;5088155;28;19915;-70
2021/06/08 02:29:36;;;;;;;;;;;16.20;99.90;;;;;;5090525;28;19955;-70
2021/06/08 02:32:01;;;;;;;;;;;16.20;99.90;;;;;;5092078;28;19915;-70
2021/06/08 02:34:28;;;;;;;;;;;16.10;99.90;;;;;;5091485;28;20345;-70
2021/06/08 02:36:53;;;;;;;;;;;16.20;99.90;;;;;;5090933;28;20358;-70
2021/06/08 02:39:19;;;;;;;;;;;16.20;99.90;;;;;;5091354;28;19908;-70
2021/06/08 02:41:45;;;;;;;;;;;16.20;99.90;;;;;;5091396;28;19969;-71
2021/06/08 02:44:11;;;;;;;;;;;16.20;99.90;;;;;;5091221;28;19965;-71
2021/06/08 02:46:37;;;;;;;;;;;16.10;99.90;;;;;;5090897;28;19908;-70
2021/06/08 02:49:03;;;;;;;;;;;16.10;99.90;;;;;;5091307;28;20011;-70
2021/06/08 02:51:28;;;;;;;;;;;16.10;99.90;;;;;;5091356;28;20258;-70
2021/06/08 02:53:54;;;;;;;;;;;16.00;99.90;;;;;;5090530;28;19908;-70
2021/06/08 02:56:20;;;;;;;;;;;16.00;99.90;;;;;;5098939;28;20369;-69
2021/06/08 02:58:46;;;;;;;;;;;16.00;99.90;;;;;;5091112;28;20003;-70
2021/06/08 03:01:13;;;;;;;;;;;15.90;99.90;;;;;;5091174;28;19999;-72
2021/06/08 03:03:40;;;;;;;;;;;15.90;99.90;;;;;;5091237;28;19914;-69
2021/06/08 03:06:12;;;;;;;;;;;16.00;99.90;;;;;;5090585;28;20582;-70
2021/06/08 03:08:58;;;;;;;;;;;16.00;99.90;;;;;;5094022;28;20412;-71
2021/06/08 03:11:29;;;;;;;;;;;16.00;99.90;;;;;;5093772;28;19935;-70
2021/06/08 03:13:55;;;;;;;;;;;15.90;99.90;;;;;;5096982;28;19908;-69
2021/06/08 03:16:22;;;;;;;;;;;15.90;99.90;;;;;;5094579;28;19908;-69
2021/06/08 03:18:49;;;;;;;;;;;15.90;99.90;;;;;;5095033;28;19915;-71
2021/06/08 03:21:27;;;;;;;;;;;15.90;99.90;;;;;;5095261;28;19977;-70
2021/06/08 03:23:55;;;;;;;;;;;15.90;99.90;;;;;;5095109;28;20373;-69
2021/06/08 03:26:21;;;;;;;;;;;16.00;99.90;;;;;;5094494;28;19909;-70
2021/06/08 03:28:48;;;;;;;;;;;16.00;99.90;;;;;;5094752;28;19915;-70
2021/06/08 03:31:14;;;;;;;;;;;16.00;99.90;;;;;;5095069;28;20027;-70
2021/06/08 03:33:40;;;;;;;;;;;16.00;99.90;;;;;;5095377;28;19999;-72
2021/06/08 03:36:07;;;;;;;;;;;16.10;99.90;;;;;;5094224;28;19912;-72
2021/06/08 03:38:33;;;;;;;;;;;16.20;99.90;;;;;;5095040;28;19912;-70
2021/06/08 03:40:59;;;;;;;;;;;16.20;99.90;;;;;;5094740;28;19916;-69
2021/06/08 03:43:25;;;;;;;;;;;16.30;99.90;;;;;;5094351;28;20388;-70
2021/06/08 03:45:51;;;;;;;;;;;16.40;99.90;;;;;;5093842;28;19919;-70
2021/06/08 03:48:17;;;;;;;;;;;16.40;99.90;;;;;;5094133;28;19912;-71
2021/06/08 03:50:43;;;;;;;;;;;16.40;99.90;;;;;;5094547;28;19908;-70
2021/06/08 03:53:09;;;;;;;;;;;16.50;99.90;;;;;;5094548;28;19969;-70
2021/06/08 03:55:34;;;;;;;;;;;16.50;99.90;;;;;;5094143;28;20373;-71
2021/06/08 03:58:09;;;;;;;;;;;16.50;99.90;;;;;;5093759;28;19912;-70
2021/06/08 04:00:35;;;;;;;;;;;16.50;99.90;;;;;;5094454;28;20278;-71
2021/06/08 04:03:02;;;;;;;;;;;16.40;99.90;;;;;;5094343;28;19923;-72
2021/06/08 04:05:28;;;;;;;;;;;16.50;99.90;;;;;;5094295;28;20323;-70
2021/06/08 04:07:53;;;;;;;;;;;16.50;99.90;;;;;;5093607;28;19962;-70
2021/06/08 04:10:20;;;;;;;;;;;16.50;99.90;;;;;;5094210;28;19912;-72
2021/06/08 04:12:46;;;;;;;;;;;16.50;99.90;;;;;;5093854;28;19991;-71
2021/06/08 04:15:12;;;;;;;;;;;16.50;99.90;;;;;;5093673;28;20404;-69
2021/06/08 04:17:38;;;;;;;;;;;16.50;99.90;;;;;;5093150;28;19912;-70
2021/06/08 04:20:07;;;;;;;;;;;16.50;99.90;;;;;;5092728;28;19931;-70
2021/06/08 04:22:34;;;;;;;;;;;16.50;99.90;;;;;;5094037;28;20387;-72
2021/06/08 04:25:00;;;;;;;;;;;16.40;99.90;;;;;;5093913;28;19961;-70
2021/06/08 04:27:26;;;;;;;;;;;16.50;99.90;;;;;;5089335;28;19912;-70
2021/06/08 04:29:53;;;;;;;;;;;16.50;99.90;;;;;;5101928;28;19912;-70
2021/06/08 04:32:18;;;;;;;;;;;16.50;99.90;;;;;;5093728;28;19908;-69
2021/06/08 04:34:51;;;;;;;;;;;16.50;99.90;;;;;;5094112;28;20281;-70
2021/06/08 04:37:16;;;;;;;;;;;16.60;99.90;;;;;;5093230;28;19923;-69
2021/06/08 04:39:42;;;;;;;;;;;16.60;99.90;;;;;;5093678;28;19912;-70
2021/06/08 04:42:09;;;;;;;;;;;16.50;99.90;;;;;;5093496;28;19916;-71
2021/06/08 04:44:34;;;;;;;;;;;16.50;99.90;;;;;;5093370;28;19915;-70
2021/06/08 04:47:00;;;;;;;;;;;16.50;99.90;;;;;;5092929;28;19908;-70
2021/06/08 04:49:25;;;;;;;;;;;16.50;99.90;;;;;;5093503;28;19912;-72
2021/06/08 04:51:51;;;;;;;;;;;16.60;99.90;;;;;;5093426;28;19915;-69
2021/06/08 04:54:23;;;;;;;;;;;16.50;99.90;;;;;;5093390;28;19974;-70
2021/06/08 04:56:49;;;;;;;;;;;16.50;99.90;;;;;;5092540;28;19919;-70
2021/06/08 04:59:16;;;;;;;;;;;16.60;99.90;;;;;;5089666;28;19908;-69
2021/06/08 05:01:43;;;;;;;;;;;16.60;99.90;;;;;;5093237;28;19908;-70
2021/06/08 05:04:11;;;;;;;;;;;16.60;99.90;;;;;;5093017;28;20372;-70
2021/06/08 05:06:43;;;;;;;;;;;16.60;99.90;;;;;;5092659;28;20330;-70
2021/06/08 05:09:14;;;;;;;;;;;16.60;99.90;;;;;;5092925;28;19908;-69
2021/06/08 05:11:46;;;;;;;;;;;16.60;99.90;;;;;;5093196;28;20131;-69
2021/06/08 05:14:13;;;;;;;;;;;16.70;99.90;;;;;;5092796;28;19912;-70
2021/06/08 05:16:40;;;;;;;;;;;16.70;99.90;;;;;;5092129;28;19915;-71
2021/06/08 05:19:06;;;;;;;;;;;16.80;99.90;;;;;;5092853;28;19956;-70
2021/06/08 05:21:32;;;;;;;;;;;16.90;99.90;;;;;;5092928;28;19935;-69
2021/06/08 05:23:58;;;;;;;;;;;17.00;99.90;;;;;;5092535;28;20311;-69
2021/06/08 05:26:24;;;;;;;;;;;17.10;99.90;;;;;;5092184;28;19912;-69
2021/06/08 05:28:49;;;;;;;;;;;17.10;99.90;;;;;;5091284;28;19908;-70
2021/06/08 05:31:19;;;;;;;;;;;17.10;99.90;;;;;;5092178;28;20007;-70
2021/06/08 05:33:44;;;;;;;;;;;17.10;99.90;;;;;;5092797;28;19961;-70
2021/06/08 05:36:10;;;;;;;;;;;17.10;99.90;;;;;;5091942;28;19912;-70
2021/06/08 05:38:39;;;;;;;;;;;17.00;99.90;;;;;;5091982;28;19920;-69
2021/06/08 05:41:05;;;;;;;;;;;17.00;99.90;;;;;;5092374;28;20381;-70
2021/06/08 05:43:31;;;;;;;;;;;17.00;99.90;;;;;;5092109;28;20327;-69
2021/06/08 05:45:56;;;;;;;;;;;17.10;99.90;;;;;;5085377;28;19916;-69
2021/06/08 05:48:22;;;;;;;;;;;17.20;99.90;;;;;;5087759;28;19990;-70
2021/06/08 05:50:48;;;;;;;;;;;17.20;99.90;;;;;;5079711;28;19908;-70
2021/06/08 05:53:16;;;;;;;;;;;17.30;99.90;;;;;;5085202;28;19916;-70
2021/06/08 05:55:44;;;;;;;;;;;17.30;99.90;;;;;;5072893;28;20004;-70
2021/06/08 05:58:11;;;;;;;;;;;17.40;99.90;;;;;;5076118;28;19913;-70
2021/06/08 06:00:37;;;;;;;;;;;17.50;99.90;;;;;;5088191;28;19916;-70
2021/06/08 06:03:02;;;;;;;;;;;17.50;99.90;;;;;;5092042;28;20045;-70
2021/06/08 06:05:28;;;;;;;;;;;17.50;99.90;;;;;;5091635;28;19916;-70
2021/06/08 06:07:53;;;;;;;;;;;17.50;99.90;;;;;;5091323;28;19915;-71
2021/06/08 06:10:19;;;;;;;;;;;17.50;99.90;;;;;;5091838;28;19965;-69
2021/06/08 06:12:45;;;;;;;;;;;17.60;99.90;;;;;;5076484;28;20377;-70
2021/06/08 06:15:11;;;;;;;;;;;17.60;99.90;;;;;;5071368;28;19913;-70
2021/06/08 06:17:38;;;;;;;;;;;17.60;99.90;;;;;;5070976;28;19970;-70
2021/06/08 06:20:05;;;;;;;;;;;17.60;99.90;;;;;;5078504;28;19908;-70
2021/06/08 06:22:32;;;;;;;;;;;17.60;99.90;;;;;;5089716;28;20032;-69
2021/06/08 06:24:58;;;;;;;;;;;17.60;99.90;;;;;;5095381;28;19915;-72
2021/06/08 06:27:24;;;;;;;;;;;17.50;99.90;;;;;;5094386;28;19908;-69
2021/06/08 06:29:50;;;;;;;;;;;17.50;99.90;;;;;;5090081;28;19908;-70
2021/06/08 06:32:18;;;;;;;;;;;17.40;99.90;;;;;;5091622;28;19955;-72
2021/06/08 06:34:44;;;;;;;;;;;17.50;99.90;;;;;;5088112;28;19915;-73
2021/06/08 06:37:10;;;;;;;;;;;17.50;99.90;;;;;;5070980;28;19920;-69
2021/06/08 06:39:36;;;;;;;;;;;17.50;99.90;;;;;;5073749;28;20024;-70
2021/06/08 06:42:02;;;;;;;;;;;17.60;99.90;;;;;;5106163;28;19912;-69
2021/06/08 06:44:28;;;;;;;;;;;17.70;99.90;;;;;;5111435;28;19943;-70
2021/06/08 06:46:53;;;;;;;;;;;17.80;99.90;;;;;;5111400;28;19908;-70
2021/06/08 06:49:20;;;;;;;;;;;17.80;99.90;;;;;;5111092;28;19908;-70
2021/06/08 06:51:46;;;;;;;;;;;17.90;99.90;;;;;;5111967;28;19914;-69
2021/06/08 06:54:11;;;;;;;;;;;17.90;99.90;;;;;;5111697;28;19914;-70
2021/06/08 06:56:37;;;;;;;;;;;17.80;99.90;;;;;;5111081;28;20283;-70
2021/06/08 06:59:04;;;;;;;;;;;17.80;99.90;;;;;;5092962;28;20341;-72
2021/06/08 07:01:30;;;;;;;;;;;17.80;99.90;;;;;;5110257;28;19914;-70
2021/06/08 07:03:57;;;;;;;;;;;17.90;99.90;;;;;;5111420;28;19958;-71
2021/06/08 07:06:24;;;;;;;;;;;18.00;99.90;;;;;;5109792;28;19908;-72
2021/06/08 07:08:50;;;;;;;;;;;18.10;99.90;;;;;;5111555;28;19908;-71
2021/06/08 07:11:16;;;;;;;;;;;18.30;99.90;;;;;;5111647;28;20118;-69
2021/06/08 07:13:42;;;;;;;;;;;18.40;99.90;;;;;;5111416;28;20364;-70
2021/06/08 07:16:08;;;;;;;;;;;18.30;99.90;;;;;;5111052;28;19950;-70
2021/06/08 07:18:33;;;;;;;;;;;18.30;99.90;;;;;;5101991;28;19947;-72
2021/06/08 07:21:00;;;;;;;;;;;18.30;99.90;;;;;;5105776;28;19907;-70
2021/06/08 07:23:27;;;;;;;;;;;18.30;99.90;;;;;;5111442;28;19908;-71
2021/06/08 07:25:52;;;;;;;;;;;18.30;99.90;;;;;;5109381;28;19917;-70
2021/06/08 07:28:18;;;;;;;;;;;18.30;99.90;;;;;;5095960;28;20282;-71
2021/06/08 07:30:44;;;;;;;;;;;18.40;99.90;;;;;;5111362;28;19908;-70
2021/06/08 07:33:30;;;;;;;;;;;18.50;99.90;;;;;;5104458;28;19914;-71
2021/06/08 07:36:10;;;;;;;;;;;18.60;99.90;;;;;;5096029;28;19931;-73
2021/06/08 07:38:46;;;;;;;;;;;18.70;99.90;;;;;;5090930;28;19916;-70
2021/06/08 07:41:13;;;;;;;;;;;18.90;99.90;;;;;;5090407;28;19965;-70
2021/06/08 07:43:44;;;;;;;;;;;19.00;99.90;;;;;;5098833;28;19912;-70
2021/06/08 07:46:12;;;;;;;;;;;19.00;99.90;;;;;;5090376;28;19947;-70
2021/06/08 07:48:40;;;;;;;;;;;18.80;99.90;;;;;;5090938;28;19946;-71
2021/06/08 07:51:05;;;;;;;;;;;18.70;99.90;;;;;;5090920;28;19908;-70
2021/06/08 07:53:32;;;;;;;;;;;18.70;99.90;;;;;;5090967;28;20266;-70
2021/06/08 07:55:58;;;;;;;;;;;18.80;99.90;;;;;;5092896;28;20329;-70
2021/06/08 07:58:25;;;;;;;;;;;19.00;99.90;;;;;;5094174;28;20530;-71
2021/06/08 08:00:52;;;;;;;;;;;19.30;99.90;;;;;;5094013;28;20365;-71
2021/06/08 08:03:25;;;;;;;;;;;19.50;99.90;;;;;;5094059;28;20404;-70
2021/06/08 08:05:51;;;;;;;;;;;19.60;99.90;;;;;;5093783;28;19958;-70
2021/06/08 08:08:18;;;;;;;;;;;19.70;99.90;;;;;;5094202;28;19912;-72
2021/06/08 08:10:44;;;;;;;;;;;19.70;99.90;;;;;;5094365;28;19916;-70
2021/06/08 08:13:11;;;;;;;;;;;19.60;99.90;;;;;;5094048;28;19912;-70
2021/06/08 08:15:36;;;;;;;;;;;19.40;99.90;;;;;;5093697;28;19949;-70
2021/06/08 08:18:03;;;;;;;;;;;19.30;99.90;;;;;;5093763;28;19999;-70
2021/06/08 08:20:41;;;;;;;;;;;19.10;99.90;;;;;;5094146;28;19908;-70
2021/06/08 08:23:07;;;;;;;;;;;19.00;99.90;;;;;;5093973;28;19912;-72
2021/06/08 08:25:32;;;;;;;;;;;19.00;99.90;;;;;;5093038;28;19965;-73
2021/06/08 08:27:58;;;;;;;;;;;19.00;99.90;;;;;;5101721;28;19908;-70
2021/06/08 08:30:24;;;;;;;;;;;19.00;99.90;;;;;;5102147;28;20361;-70
2021/06/08 08:32:49;;;;;;;;;;;19.10;99.90;;;;;;5093468;28;19916;-70
2021/06/08 08:35:15;;;;;;;;;;;19.30;99.90;;;;;;5093601;28;19912;-70
2021/06/08 08:37:40;;;;;;;;;;;19.30;99.90;;;;;;5093084;28;19918;-70
2021/06/08 08:40:06;;;;;;;;;;;19.30;99.90;;;;;;5092938;28;19920;-70
2021/06/08 08:42:32;;;;;;;;;;;19.30;99.90;;;;;;5093708;28;20299;-71
2021/06/08 08:44:57;;;;;;;;;;;19.20;99.90;;;;;;5093273;28;19970;-71
2021/06/08 08:47:23;;;;;;;;;;;19.20;99.90;;;;;;5092862;28;19908;-72
2021/06/08 08:49:49;;;;;;;;;;;19.30;99.90;;;;;;5093660;28;20333;-69
2021/06/08 08:52:15;;;;;;;;;;;19.30;99.90;;;;;;5093229;28;19943;-70
2021/06/08 08:54:42;;;;;;;;;;;19.30;99.90;;;;;;5093592;28;19962;-70
2021/06/08 08:57:08;;;;;;;;;;;19.30;99.90;;;;;;5090221;28;20381;-71
2021/06/08 08:59:33;;;;;;;;;;;19.20;99.90;;;;;;5091783;28;19912;-71
2021/06/08 09:02:00;;;;;;;;;;;19.20;99.90;;;;;;5093257;28;20452;-69
2021/06/08 09:04:25;;;;;;;;;;;19.30;99.90;;;;;;5093044;28;20308;-70
2021/06/08 09:06:51;;;;;;;;;;;19.50;99.90;;;;;;5091731;28;19908;-70
2021/06/08 09:09:17;;;;;;;;;;;19.70;99.90;;;;;;5092955;28;20006;-70
2021/06/08 09:11:43;;;;;;;;;;;20.10;99.90;;;;;;5092947;28;19908;-70
2021/06/08 09:14:09;;;;;;;;;;;20.20;99.90;;;;;;5092632;28;19908;-70
2021/06/08 09:16:35;;;;;;;;;;;20.40;99.90;;;;;;5092089;28;19915;-70
2021/06/08 09:19:02;;;;;;;;;;;20.70;99.90;;;;;;5092882;28;19908;-70
2021/06/08 09:21:28;;;;;;;;;;;21.00;99.90;;;;;;5092646;28;20593;-70
2021/06/08 09:24:13;;;;;;;;;;;21.20;99.90;;;;;;5092882;28;19915;-73
2021/06/08 09:27:05;;;;;;;;;;;21.40;99.90;;;;;;5102592;28;19908;-70
2021/06/08 09:29:30;;;;;;;;;;;21.50;99.90;;;;;;5088646;28;20297;-71
2021/06/08 09:32:15;;;;;;;;;;;21.50;99.90;;;;;;5089307;28;19923;-70
2021/06/08 09:35:06;;;;;;;;;;;21.40;99.90;;;;;;5083798;28;19915;-71
2021/06/08 09:37:32;;;;;;;;;;;21.30;99.90;;;;;;5089469;28;20087;-70
2021/06/08 09:39:57;;;;;;;;;;;21.30;99.90;;;;;;5092256;28;20391;-70
2021/06/08 09:42:27;;;;;;;;;;;21.40;99.90;;;;;;5092104;28;19915;-70
2021/06/08 09:44:53;;;;;;;;;;;21.60;99.90;;;;;;5089909;28;20461;-71
2021/06/08 09:47:25;;;;;;;;;;;21.80;99.90;;;;;;5090647;28;20003;-72
2021/06/08 09:49:51;;;;;;;;;;;22.00;99.90;;;;;;5092138;28;19962;-70
2021/06/08 09:52:18;;;;;;;;;;;22.00;99.90;;;;;;5092191;28;19912;-72
2021/06/08 09:54:44;;;;;;;;;;;21.80;99.90;;;;;;5091772;28;20008;-70
2021/06/08 09:57:20;;;;;;;;;;;21.60;99.90;;;;;;5088511;28;19959;-70
2021/06/08 09:59:49;;;;;;;;;;;21.50;99.90;;;;;;5084065;28;20288;-70
2021/06/08 10:02:22;;;;;;;;;;;21.50;99.90;;;;;;5091185;28;19908;-70
2021/06/08 10:04:47;;;;;;;;;;;21.60;99.90;;;;;;5091808;28;20020;-70
2021/06/08 10:07:28;;;;;;;;;;;21.50;99.90;;;;;;5090755;28;19908;-70
2021/06/08 10:10:05;;;;;;;;;;;21.60;99.90;;;;;;5091719;28;20457;-71
2021/06/08 10:12:31;;;;;;;;;;;21.60;99.90;;;;;;5091940;28;20414;-70
2021/06/08 10:15:07;;;;;;;;;;;21.70;99.90;;;;;;5091350;28;19912;-70
2021/06/08 10:17:32;;;;;;;;;;;21.80;99.90;;;;;;5089978;28;19912;-71
2021/06/08 10:20:15;;;;;;;;;;;22.00;99.90;;;;;;5090827;28;19912;-71
2021/06/08 10:22:40;;;;;;;;;;;22.00;99.90;;;;;;5091730;28;20365;-71
2021/06/08 10:25:06;;;;;;;;;;;22.00;99.90;;;;;;5079317;28;19913;-70
2021/06/08 10:27:32;;;;;;;;;;;21.80;99.90;;;;;;5085739;28;19912;-71
2021/06/08 10:29:57;;;;;;;;;;;21.60;99.90;;;;;;5091234;28;19908;-72
2021/06/08 10:32:23;;;;;;;;;;;21.60;99.90;;;;;;5085218;28;19920;-70
2021/06/08 10:34:48;;;;;;;;;;;21.40;99.90;;;;;;5091630;28;20365;-70
2021/06/08 10:37:17;;;;;;;;;;;21.40;99.90;;;;;;5090544;28;20514;-71
2021/06/08 10:39:43;;;;;;;;;;;21.50;99.90;;;;;;5091087;28;19908;-70
2021/06/08 10:42:08;;;;;;;;;;;21.40;99.90;;;;;;5091379;28;19912;-71
2021/06/08 10:44:35;;;;;;;;;;;21.30;99.90;;;;;;5090849;28;19908;-71
2021/06/08 10:47:08;;;;;;;;;;;21.30;99.90;;;;;;5090459;28;19939;-71
2021/06/08 10:49:33;;;;;;;;;;;21.20;99.90;;;;;;5089945;28;19955;-70
2021/06/08 10:52:05;;;;;;;;;;;21.30;99.90;;;;;;5091323;28;19908;-71
2021/06/08 10:54:36;;;;;;;;;;;21.40;99.90;;;;;;5090975;28;19943;-71
2021/06/08 10:57:03;;;;;;;;;;;21.60;99.90;;;;;;5088749;28;19955;-71
2021/06/08 10:59:35;;;;;;;;;;;21.60;99.90;;;;;;5088714;28;19954;-71
2021/06/08 11:02:01;;;;;;;;;;;21.50;99.90;;;;;;5091162;28;19914;-71
2021/06/08 11:04:46;;;;;;;;;;;21.20;99.90;;;;;;5090973;28;20003;-70
2021/06/08 11:07:12;;;;;;;;;;;21.10;99.90;;;;;;5090349;28;20002;-70
2021/06/08 11:09:38;;;;;;;;;;;21.00;99.90;;;;;;5090584;28;20377;-71
2021/06/08 11:12:04;;;;;;;;;;;21.00;99.90;;;;;;5091064;28;20289;-71
2021/06/08 11:14:29;;;;;;;;;;;21.10;99.90;;;;;;5090813;28;19954;-71
2021/06/08 11:16:58;;;;;;;;;;;21.10;99.90;;;;;;5090142;28;19914;-71
2021/06/08 11:19:44;;;;;;;;;;;21.20;99.90;;;;;;5090823;28;19999;-71
2021/06/08 11:22:11;;;;;;;;;;;21.20;99.90;;;;;;5090706;28;19908;-70
2021/06/08 11:24:38;;;;;;;;;;;21.30;99.90;;;;;;5090814;28;19908;-72
2021/06/08 11:27:04;;;;;;;;;;;21.40;99.90;;;;;;5087142;28;20361;-71
2021/06/08 11:29:43;;;;;;;;;;;21.50;99.90;;;;;;5090931;28;19908;-71
2021/06/08 11:32:08;;;;;;;;;;;21.70;99.90;;;;;;5094432;28;19908;-70
2021/06/08 11:34:53;;;;;;;;;;;21.80;99.90;;;;;;5094365;28;19909;-70
2021/06/08 11:37:37;;;;;;;;;;;21.90;99.90;;;;;;5093868;28;20265;-70
2021/06/08 11:40:21;;;;;;;;;;;21.90;99.90;;;;;;5094815;28;19912;-70
2021/06/08 11:42:46;;;;;;;;;;;21.80;99.90;;;;;;5094624;28;20468;-71
2021/06/08 11:45:25;;;;;;;;;;;21.70;99.90;;;;;;5094019;28;19999;-71
2021/06/08 11:47:50;;;;;;;;;;;21.60;99.90;;;;;;5093428;28;20346;-71
2021/06/08 11:50:35;;;;;;;;;;;21.60;99.90;;;;;;5094738;28;19916;-71
2021/06/08 11:53:11;;;;;;;;;;;21.50;99.90;;;;;;5089816;28;19916;-71
2021/06/08 11:55:37;;;;;;;;;;;21.70;99.90;;;;;;5093424;28;19912;-71
2021/06/08 11:58:02;;;;;;;;;;;21.80;99.90;;;;;;5090437;28;19912;-71
2021/06/08 12:00:50;;;;;;;;;;;22.00;99.90;;;;;;5092347;28;19977;-71
2021/06/08 12:03:29;;;;;;;;;;;22.20;99.90;;;;;;5094292;28;19908;-71
2021/06/08 12:05:55;;;;;;;;;;;22.30;99.90;;;;;;5093227;28;19919;-72
2021/06/08 12:08:24;;;;;;;;;;;22.40;99.90;;;;;;5095121;28;19916;-71
2021/06/08 12:10:50;;;;;;;;;;;22.50;99.90;;;;;;5095434;28;19908;-73
2021/06/08 12:13:25;;;;;;;;;;;22.50;99.90;;;;;;5094787;28;19915;-70
2021/06/08 12:15:52;;;;;;;;;;;22.60;99.90;;;;;;5092860;28;19998;-71
2021/06/08 12:18:31;;;;;;;;;;;22.80;99.90;;;;;;5094336;28;20037;-71
2021/06/08 12:20:57;;;;;;;;;;;22.80;99.90;;;;;;5094143;28;19912;-71
2021/06/08 12:23:33;;;;;;;;;;;22.80;99.90;;;;;;5095334;28;20407;-71
2021/06/08 12:26:11;;;;;;;;;;;23.10;99.90;;;;;;5099636;28;19912;-74
2021/06/08 12:28:37;;;;;;;;;;;23.30;99.90;;;;;;5095677;28;19964;-70
2021/06/08 12:31:13;;;;;;;;;;;23.50;99.90;;;;;;5093583;28;19912;-70
2021/06/08 12:33:38;;;;;;;;;;;23.80;99.90;;;;;;5093001;28;20154;-70
2021/06/08 12:36:07;;;;;;;;;;;24.00;99.90;;;;;;5092600;28;19908;-70
2021/06/08 12:38:33;;;;;;;;;;;24.40;99.90;;;;;;5093460;28;20369;-71
2021/06/08 12:41:09;;;;;;;;;;;24.90;99.90;;;;;;5092637;28;19923;-72
2021/06/08 12:43:49;;;;;;;;;;;25.20;99.90;;;;;;5093455;28;19956;-70
2021/06/08 12:46:31;;;;;;;;;;;25.40;99.90;;;;;;5092610;28;19916;-71
2021/06/08 12:49:07;;;;;;;;;;;25.30;99.90;;;;;;5093451;28;19956;-75
2021/06/08 12:51:34;;;;;;;;;;;25.20;99.90;;;;;;5093448;28;20399;-71
2021/06/08 12:54:00;;;;;;;;;;;25.20;99.90;;;;;;5093000;28;19908;-70
2021/06/08 12:56:25;;;;;;;;;;;25.30;99.90;;;;;;5092625;28;19911;-70
2021/06/08 12:58:51;;;;;;;;;;;25.30;99.90;;;;;;5089424;28;19912;-74
2021/06/08 13:01:17;;;;;;;;;;;25.30;99.90;;;;;;5093226;28;19912;-70
2021/06/08 13:03:44;;;;;;;;;;;25.20;99.90;;;;;;5093273;28;20084;-70
2021/06/08 13:06:11;;;;;;;;;;;24.90;99.90;;;;;;5092186;28;19908;-70
2021/06/08 13:08:37;;;;;;;;;;;24.70;99.90;;;;;;5093343;28;19924;-70
2021/06/08 13:11:03;;;;;;;;;;;24.60;99.90;;;;;;5092969;28;19908;-70
2021/06/08 13:13:32;;;;;;;;;;;24.60;99.90;;;;;;5092996;28;19931;-70
2021/06/08 13:15:57;;;;;;;;;;;24.70;99.90;;;;;;5091594;28;19908;-72
2021/06/08 13:18:23;;;;;;;;;;;25.00;99.90;;;;;;5092375;28;20006;-70
2021/06/08 13:20:49;;;;;;;;;;;25.50;99.90;;;;;;5092586;28;19912;-71
2021/06/08 13:23:24;;;;;;;;;;;26.00;99.90;;;;;;5092641;28;20276;-71
2021/06/08 13:26:04;;;;;;;;;;;26.20;99.90;;;;;;5091015;28;19916;-71
2021/06/08 13:28:37;;;;;;;;;;;26.10;99.90;;;;;;5081420;28;19908;-70
2021/06/08 13:31:08;;;;;;;;;;;25.80;99.90;;;;;;5092456;28;19992;-70
2021/06/08 13:33:36;;;;;;;;;;;25.30;99.90;;;;;;5086137;28;20015;-70
2021/06/08 13:36:02;;;;;;;;;;;24.90;99.90;;;;;;5089911;28;19908;-71
2021/06/08 13:38:27;;;;;;;;;;;24.70;99.90;;;;;;5092287;28;19912;-70
2021/06/08 13:40:53;;;;;;;;;;;24.20;99.90;;;;;;5092325;28;19916;-70
2021/06/08 13:43:19;;;;;;;;;;;24.00;99.90;;;;;;5092107;28;19940;-71
2021/06/08 13:45:48;;;;;;;;;;;24.10;99.90;;;;;;5091358;28;19908;-72
2021/06/08 13:48:16;;;;;;;;;;;24.50;99.90;;;;;;5092238;28;20170;-71
2021/06/08 13:50:43;;;;;;;;;;;24.90;99.90;;;;;;5092190;28;20385;-74
2021/06/08 13:53:18;;;;;;;;;;;25.10;99.90;;;;;;5092203;28;20007;-74
2021/06/08 13:55:56;;;;;;;;;;;25.50;99.90;;;;;;5090903;28;19916;-70
2021/06/08 14:01:10;;;;;;;;;;;26.00;99.90;;;;;;5091521;28;19915;-70
2021/06/08 14:03:36;;;;;;;;;;;26.30;99.90;;;;;;5090586;28;19912;-71
2021/06/08 14:06:13;;;;;;;;;;;26.40;99.90;;;;;;5091270;28;20040;-70
2021/06/08 14:08:39;;;;;;;;;;;26.50;99.90;;;;;;5091771;28;19908;-74
2021/06/08 14:11:05;;;;;;;;;;;26.60;99.90;;;;;;5088029;28;20341;-72
2021/06/08 14:13:43;;;;;;;;;;;26.70;99.90;;;;;;5091494;28;19909;-71
2021/06/08 14:16:18;;;;;;;;;;;26.50;99.90;;;;;;5091081;28;19908;-70
2021/06/08 14:18:44;;;;;;;;;;;26.30;99.90;;;;;;5091518;28;19919;-71
2021/06/08 14:21:10;;;;;;;;;;;26.20;99.90;;;;;;5091673;28;19908;-70
2021/06/08 14:23:36;;;;;;;;;;;26.10;99.90;;;;;;5091418;28;20266;-71
2021/06/08 14:26:12;;;;;;;;;;;26.10;99.90;;;;;;5090204;28;19912;-70